Canoe Narrows, Canada
Current Conditions -  °F | °C
As of 10:00 PM on Monday 20 Oct 2014 (Local Time) from CYVT Reporting Station
Few Clouds Few Clouds  
Wind Chill: 46°   Ceiling: Unl
Heat Index: 48°   Visibility: 15mi
Dew Point: 39°   Wind: 6mph
Humidity: 71%   Direction: 180°S
Pressure: 29.5"   Gusts: NA
Location:  55.17°N, 108.15°W
Report Text: CYVT 210400Z 18005KT 15SM FEW230 09/04 A2950 RMK CI1 LAST STFD OB/NXT 211200 UTC SLP003
Loading
Personal Weather Stations






























Interactive Weather Map
Tropical Storm Tracking
New forecast layout! Learn more

10-Day Weather Forecast

Advertisements
Track Severe Weather on mobile